createdAt,value
2019-05-12T00:04:52.123Z,99.99
2019-05-12T00:06:51.780Z,99.99
2019-05-12T00:07:52.010Z,99.99
2019-05-12T00:17:52.067Z,99.99
2019-05-12T00:18:52.095Z,99.99
2019-05-12T00:19:52.124Z,99.99
2019-05-12T00:20:52.154Z,99.99
2019-05-12T00:21:52.182Z,99.99
2019-05-12T00:22:52.209Z,99.99
2019-05-12T00:23:52.238Z,99.99
2019-05-12T00:24:52.292Z,99.99
2019-05-12T00:25:52.296Z,99.99
2019-05-12T00:28:19.975Z,99.99
2019-05-12T00:29:20.006Z,99.99
2019-05-12T00:30:20.031Z,99.99
2019-05-12T00:31:20.059Z,99.99
2019-05-12T00:32:20.089Z,99.99
2019-05-12T00:33:20.116Z,99.99
2019-05-12T00:35:12.712Z,99.99
2019-05-12T00:36:12.741Z,99.99
2019-05-12T00:37:12.771Z,99.99
2019-05-12T00:38:12.797Z,99.99
2019-05-12T00:39:12.826Z,99.99
2019-05-12T00:40:12.854Z,99.99
2019-05-12T00:41:12.897Z,99.99
2019-05-12T00:42:12.912Z,99.99
2019-05-12T00:43:12.938Z,99.99
2019-05-12T00:44:12.967Z,99.99
2019-05-12T00:45:12.999Z,99.99
2019-05-12T00:46:13.025Z,99.99
2019-05-12T00:47:13.053Z,99.99
2019-05-12T00:48:13.084Z,99.99
2019-05-12T00:49:13.110Z,99.99
2019-05-12T00:50:13.139Z,99.99
2019-05-12T00:51:13.166Z,99.99
2019-05-12T00:52:13.195Z,99.99
2019-05-12T00:53:13.223Z,99.99
2019-05-12T00:54:13.258Z,99.99
2019-05-12T00:55:13.278Z,99.99
2019-05-12T00:56:13.306Z,99.99
2019-05-12T00:57:13.334Z,99.99
2019-05-12T00:58:13.363Z,99.99
2019-05-12T00:59:13.410Z,99.99
2019-05-12T01:00:13.428Z,99.99
2019-05-12T01:01:13.449Z,99.99
2019-05-12T01:02:13.476Z,99.99
2019-05-12T01:03:13.504Z,99.99
2019-05-12T01:04:13.532Z,99.99
2019-05-12T01:05:13.561Z,99.99
2019-05-12T01:06:13.592Z,99.99
2019-05-12T01:07:13.616Z,99.99
2019-05-12T01:08:13.644Z,99.99
2019-05-12T01:09:13.673Z,99.99
2019-05-12T01:10:13.701Z,99.99
2019-05-12T01:11:13.728Z,99.99
2019-05-12T01:12:13.756Z,99.99
2019-05-12T01:13:13.784Z,99.99
2019-05-12T01:14:13.813Z,99.99
2019-05-12T01:15:13.847Z,99.99
2019-05-12T01:16:13.869Z,99.99
2019-05-12T01:17:13.896Z,99.99
2019-05-12T01:18:13.927Z,99.99
2019-05-12T01:19:13.974Z,99.99
2019-05-12T01:20:13.990Z,99.99
2019-05-12T01:21:14.032Z,99.99
2019-05-12T01:22:14.060Z,99.99
2019-05-12T01:23:14.395Z,99.99
2019-05-12T01:25:14.452Z,99.99
2019-05-12T01:35:00.665Z,99.99
2019-05-12T01:59:58.134Z,99.99
2019-05-12T02:00:56.166Z,99.99
2019-05-12T02:01:58.100Z,99.99
2019-05-12T02:02:58.424Z,99.99
2019-05-12T02:03:58.431Z,99.99
2019-05-12T02:04:56.280Z,99.99
2019-05-12T02:05:57.968Z,99.99
2019-05-12T02:06:57.816Z,99.99
2019-05-12T02:07:58.319Z,99.99
2019-05-12T02:08:58.178Z,99.99
2019-05-12T02:09:58.433Z,99.99
2019-05-12T02:10:58.133Z,99.99
2019-05-12T02:11:58.250Z,99.99
2019-05-12T02:12:59.035Z,99.99
2019-05-12T02:13:57.978Z,99.99
2019-05-12T02:14:58.423Z,99.99
2019-05-12T02:15:57.862Z,99.99
2019-05-12T02:16:58.161Z,99.99
2019-05-12T02:17:58.879Z,99.99
2019-05-12T02:18:58.279Z,99.99
2019-05-12T02:19:58.645Z,99.99
2019-05-12T02:20:57.687Z,99.99
2019-05-12T02:21:57.930Z,99.99
2019-05-12T02:22:58.413Z,99.99
2019-05-12T02:23:58.317Z,99.99
2019-05-12T02:24:58.413Z,99.99
2019-05-12T02:25:58.582Z,99.99
2019-05-12T02:26:57.860Z,99.99
2019-05-12T02:27:58.388Z,99.99
2019-05-12T02:28:58.592Z,99.99
2019-05-12T02:29:58.584Z,99.99
2019-05-12T02:30:59.011Z,99.99
2019-05-12T02:31:58.975Z,99.99
2019-05-12T02:32:59.062Z,99.99
2019-05-12T02:33:57.099Z,99.99
2019-05-12T02:34:57.127Z,99.99
2019-05-12T02:35:57.155Z,99.99
2019-05-12T02:36:57.187Z,99.99
2019-05-12T02:37:57.214Z,99.99
2019-05-12T02:38:57.251Z,99.99
2019-05-12T02:39:57.269Z,99.99
2019-05-12T02:40:57.296Z,99.99
2019-05-12T02:41:57.325Z,99.99
2019-05-12T02:42:57.354Z,99.99
2019-05-12T02:43:57.381Z,99.99
2019-05-12T02:44:57.414Z,99.99
2019-05-12T02:45:57.452Z,99.99
2019-05-12T02:46:57.467Z,99.99
2019-05-12T02:47:57.496Z,99.99
2019-05-12T02:48:57.528Z,99.99
2019-05-12T02:49:57.554Z,99.99
2019-05-12T02:50:57.580Z,99.99
2019-05-12T02:51:57.610Z,99.99
2019-05-12T02:52:57.637Z,99.99
2019-05-12T02:53:57.665Z,99.99
2019-05-12T02:55:00.678Z,99.99
2019-05-12T02:55:57.723Z,99.99
2019-05-12T02:56:57.751Z,99.99
2019-05-12T02:57:57.785Z,99.99
2019-05-12T02:58:57.807Z,99.99
2019-05-12T02:59:57.836Z,99.99
2019-05-12T03:00:57.865Z,99.99
2019-05-12T03:01:57.894Z,99.99
2019-05-12T03:02:57.920Z,99.99
2019-05-12T03:03:57.950Z,99.99
2019-05-12T03:04:57.977Z,99.99
2019-05-12T03:05:58.006Z,99.99
2019-05-12T03:07:02.041Z,99.99
2019-05-12T03:07:58.062Z,99.99
2019-05-12T03:08:58.091Z,99.99
2019-05-12T03:09:58.120Z,99.99
2019-05-12T03:10:58.156Z,99.99
2019-05-12T03:11:58.177Z,99.99
2019-05-12T03:12:58.209Z,99.99
2019-05-12T03:13:58.238Z,99.99
2019-05-12T03:14:58.259Z,99.99
2019-05-12T03:15:58.289Z,99.99
2019-05-12T03:16:58.317Z,99.99
2019-05-12T03:17:58.346Z,99.99
2019-05-12T03:18:58.378Z,99.99
2019-05-12T03:19:58.403Z,99.99
2019-05-12T03:20:58.435Z,99.99
2019-05-12T03:21:58.459Z,99.99
2019-05-12T03:22:58.487Z,99.99
2019-05-12T03:23:58.516Z,99.99
2019-05-12T03:25:11.279Z,99.99
2019-05-12T03:25:58.574Z,99.99
2019-05-12T03:26:58.601Z,99.99
2019-05-12T03:27:58.628Z,99.99
2019-05-12T03:28:58.657Z,99.99
2019-05-12T03:29:58.689Z,99.99
2019-05-12T03:30:58.743Z,99.99
2019-05-12T03:31:58.742Z,99.99
2019-05-12T03:32:58.895Z,99.99
2019-05-12T03:34:00.496Z,99.99
2019-05-12T03:34:58.827Z,99.99
2019-05-12T03:36:01.212Z,99.99
2019-05-12T03:36:59.693Z,99.99
2019-05-12T03:37:58.917Z,99.99
2019-05-12T03:38:58.940Z,99.99
2019-05-12T03:39:58.969Z,99.99
2019-05-12T03:40:59.236Z,99.99
2019-05-12T03:41:59.026Z,99.99
2019-05-12T03:42:59.053Z,99.99
2019-05-12T03:43:59.080Z,99.99
2019-05-12T03:44:59.109Z,99.99
2019-05-12T03:45:59.139Z,99.99
2019-05-12T03:46:59.168Z,99.99
2019-05-12T03:47:59.193Z,99.99
2019-05-12T03:48:59.223Z,99.99
2019-05-12T03:49:59.260Z,99.99
2019-05-12T03:50:59.280Z,99.99
2019-05-12T03:51:59.334Z,99.99
2019-05-12T03:52:59.336Z,99.99
2019-05-12T03:53:59.367Z,99.99
2019-05-12T03:54:59.393Z,99.99
2019-05-12T03:55:59.419Z,99.99
2019-05-12T03:56:59.448Z,99.99
2019-05-12T03:57:59.483Z,99.99
2019-05-12T03:58:59.504Z,99.99
2019-05-12T03:59:59.533Z,99.99
2019-05-12T04:00:59.561Z,99.99
2019-05-12T04:01:59.590Z,99.99
2019-05-12T04:02:59.617Z,99.99
2019-05-12T04:03:59.646Z,99.99
2019-05-12T04:04:59.674Z,99.99
2019-05-12T04:05:59.704Z,99.99
2019-05-12T04:06:59.737Z,99.99
2019-05-12T04:07:59.759Z,99.99
2019-05-12T04:09:00.164Z,99.99
2019-05-12T04:10:59.869Z,99.99
2019-05-12T04:11:59.926Z,99.99
2019-05-12T04:12:59.900Z,99.99
2019-05-12T04:13:59.930Z,99.99
2019-05-12T04:14:59.957Z,99.99
2019-05-12T04:16:00.011Z,99.99
2019-05-12T04:17:00.015Z,99.99
2019-05-12T04:18:00.042Z,99.99
2019-05-12T04:19:00.071Z,99.99
2019-05-12T04:20:00.101Z,99.99
2019-05-12T04:21:00.127Z,99.99
2019-05-12T04:22:00.486Z,99.99
2019-05-12T04:23:00.209Z,99.99
2019-05-12T04:24:00.211Z,99.99
2019-05-12T04:25:00.244Z,99.99
2019-05-12T04:26:08.421Z,99.99
2019-05-12T04:27:00.301Z,99.99
2019-05-12T04:28:00.333Z,99.99
2019-05-12T04:29:00.355Z,99.99
2019-05-12T04:30:00.384Z,99.99
2019-05-12T04:31:00.411Z,99.99
2019-05-12T04:32:00.439Z,99.99
2019-05-12T04:33:00.468Z,99.99
2019-05-12T04:34:00.502Z,99.99
2019-05-12T04:35:00.524Z,99.99
2019-05-12T04:36:00.557Z,99.99
2019-05-12T04:37:00.582Z,99.99
2019-05-12T04:38:00.611Z,99.99
2019-05-12T04:39:00.840Z,99.99
2019-05-12T04:40:00.669Z,99.99
2019-05-12T04:41:00.696Z,99.99
2019-05-12T04:42:00.724Z,99.99
2019-05-12T04:43:00.752Z,99.99
2019-05-12T04:44:00.781Z,99.99
2019-05-12T04:45:04.296Z,99.99
2019-05-12T04:46:00.837Z,99.99
2019-05-12T04:47:00.867Z,99.99
2019-05-12T04:48:00.897Z,99.99
2019-05-12T04:49:00.923Z,99.99
2019-05-12T04:50:00.953Z,99.99
2019-05-12T04:51:00.979Z,99.99
2019-05-12T04:52:04.987Z,99.99
2019-05-12T04:53:01.036Z,99.99
2019-05-12T04:54:01.065Z,99.99
2019-05-12T04:55:04.459Z,99.99
2019-05-12T04:56:10.770Z,99.99
2019-05-12T04:57:03.970Z,99.99
2019-05-12T04:58:04.241Z,99.99
2019-05-12T04:59:04.700Z,99.99
2019-05-12T05:00:04.829Z,99.99
2019-05-12T05:01:01.268Z,99.99
2019-05-12T05:02:05.130Z,99.99
2019-05-12T05:03:01.328Z,99.99
2019-05-12T05:04:01.361Z,99.99
2019-05-12T05:05:01.382Z,99.99
2019-05-12T05:06:04.305Z,99.99
2019-05-12T05:07:04.285Z,99.99
2019-05-12T05:09:04.838Z,99.99
2019-05-12T05:10:04.583Z,99.99
2019-05-12T05:11:03.899Z,99.99
2019-05-12T05:12:04.417Z,99.99
2019-05-12T05:13:04.685Z,99.99
2019-05-12T05:14:04.236Z,99.99
2019-05-12T05:15:01.685Z,99.99
2019-05-12T05:16:01.698Z,99.99
2019-05-12T05:17:05.107Z,99.99
2019-05-12T05:18:06.040Z,99.99
2019-05-12T05:19:03.640Z,99.99
2019-05-12T05:20:03.962Z,99.99
2019-05-12T05:21:01.841Z,99.99
2019-05-12T05:22:04.239Z,99.99
2019-05-12T05:23:03.453Z,99.99
2019-05-12T05:24:03.787Z,99.99
2019-05-12T05:25:04.139Z,99.99
2019-05-12T05:26:03.263Z,99.99
2019-05-12T05:27:04.343Z,99.99
2019-05-12T05:28:03.908Z,99.99
2019-05-12T05:29:04.099Z,99.99
2019-05-12T05:30:03.974Z,99.99
2019-05-12T05:31:03.571Z,99.99
2019-05-12T05:32:03.506Z,99.99
2019-05-12T05:33:04.543Z,99.99
2019-05-12T05:34:04.440Z,99.99
2019-05-12T05:35:03.948Z,99.99
2019-05-12T05:36:03.500Z,99.99
2019-05-12T05:37:02.306Z,99.99
2019-05-12T05:38:04.288Z,99.99
2019-05-12T05:39:04.331Z,99.99
2019-05-12T05:40:03.892Z,99.99
2019-05-12T05:41:05.952Z,99.99
2019-05-12T05:42:04.467Z,99.99
2019-05-12T05:43:03.717Z,99.99
2019-05-12T05:44:03.090Z,99.99
2019-05-12T05:45:04.648Z,99.99
2019-05-12T05:46:07.655Z,99.99
2019-05-12T05:47:04.370Z,99.99
2019-05-12T05:48:05.592Z,99.99
2019-05-12T05:49:04.212Z,99.99
2019-05-12T05:50:04.774Z,99.99
2019-05-12T05:51:05.654Z,99.99
2019-05-12T05:52:03.529Z,99.99
2019-05-12T05:53:03.821Z,99.99
2019-05-12T05:54:03.947Z,99.99
2019-05-12T05:55:07.826Z,99.99
2019-05-12T05:56:04.049Z,99.99
2019-05-12T05:57:05.481Z,99.99
2019-05-12T05:58:07.920Z,99.99
2019-05-12T05:59:04.578Z,99.99
2019-05-12T06:00:07.321Z,99.99
2019-05-12T06:01:07.633Z,99.99
2019-05-12T06:02:04.934Z,99.99
2019-05-12T06:03:05.381Z,99.99
2019-05-12T06:04:04.326Z,99.99
2019-05-12T06:05:04.403Z,99.99
2019-05-12T06:06:10.788Z,99.99
2019-05-12T06:07:04.126Z,99.99
2019-05-12T06:08:04.216Z,99.99
2019-05-12T06:09:03.750Z,99.99
2019-05-12T06:10:04.116Z,99.99
2019-05-12T06:11:04.767Z,99.99
2019-05-12T06:12:07.564Z,99.99
2019-05-12T06:13:04.153Z,99.99
2019-05-12T06:14:11.390Z,99.99
2019-05-12T06:15:04.210Z,99.99
2019-05-12T06:16:04.521Z,99.99
2019-05-12T06:17:04.360Z,99.99
2019-05-12T06:18:03.881Z,99.99
2019-05-12T06:19:03.656Z,99.99
2019-05-12T06:20:04.435Z,99.99
2019-05-12T06:22:04.011Z,99.99
2019-05-12T06:23:04.383Z,99.99
2019-05-12T06:24:03.788Z,99.99
2019-05-12T06:26:04.612Z,99.99
2019-05-12T06:27:14.366Z,99.99
2019-05-12T06:28:06.398Z,99.99
2019-05-12T06:29:04.384Z,99.99
2019-05-12T06:30:06.263Z,99.99
2019-05-12T06:31:04.250Z,99.99
2019-05-12T06:32:08.125Z,99.99
2019-05-12T06:33:04.266Z,99.99
2019-05-12T06:34:06.254Z,99.99
2019-05-12T06:35:04.680Z,99.99
2019-05-12T06:38:37.241Z,99.99
2019-05-12T06:39:34.211Z,99.99
2019-05-12T06:40:40.216Z,99.99
2019-05-12T06:41:33.614Z,99.99
2019-05-12T06:42:34.112Z,99.99
2019-05-12T06:43:35.268Z,99.99
2019-05-12T06:44:33.471Z,99.99
2019-05-12T06:45:33.971Z,99.99
2019-05-12T06:46:34.271Z,99.99
2019-05-12T06:48:33.283Z,99.99
2019-05-12T06:49:33.765Z,99.99
2019-05-12T06:50:36.980Z,99.99
2019-05-12T06:52:33.758Z,99.99
2019-05-12T06:53:33.625Z,99.99
2019-05-12T06:54:33.528Z,99.99
2019-05-12T06:55:34.501Z,99.99
2019-05-12T06:56:34.212Z,99.99
2019-05-12T06:57:34.259Z,99.99
2019-05-12T06:58:34.385Z,99.99
2019-05-12T06:59:33.865Z,99.99
2019-05-12T07:00:35.038Z,99.99
2019-05-12T07:01:33.475Z,99.99
2019-05-12T07:02:37.035Z,99.99
2019-05-12T07:03:36.921Z,99.99
2019-05-12T07:04:33.964Z,99.99
2019-05-12T07:05:37.772Z,99.99
2019-05-12T07:08:38.289Z,99.99
2019-05-12T07:09:35.342Z,99.99
2019-05-12T07:10:39.481Z,99.99
2019-05-12T07:11:42.571Z,99.99
2019-05-12T07:18:36.972Z,99.99
2019-05-12T07:21:27.308Z,99.99
2019-05-12T07:22:26.023Z,99.99
2019-05-12T07:23:30.067Z,99.99
2019-05-12T07:24:25.891Z,99.99
2019-05-12T07:25:31.273Z,99.99
2019-05-12T07:27:35.645Z,99.99
2019-05-12T07:28:30.467Z,99.99
2019-05-12T07:29:26.039Z,99.99
2019-05-12T07:30:26.096Z,99.99
2019-05-12T07:31:26.102Z,99.99
2019-05-12T07:32:26.158Z,99.99
2019-05-12T07:35:26.427Z,99.99
2019-05-12T07:36:26.256Z,99.99
2019-05-12T07:37:26.288Z,99.99
2019-05-12T07:38:26.334Z,99.99
2019-05-12T07:39:26.350Z,99.99
2019-05-12T07:40:30.031Z,99.99
2019-05-12T07:41:26.414Z,99.99
2019-05-12T07:42:31.548Z,99.99
2019-05-12T07:43:26.474Z,99.99
2019-05-12T07:44:31.472Z,99.99
2019-05-12T07:45:26.537Z,99.99
2019-05-12T07:46:27.976Z,99.85
2019-05-12T07:47:29.303Z,99.99
2019-05-12T07:48:26.635Z,99.99
2019-05-12T07:49:33.948Z,99.23
2019-05-12T07:50:27.470Z,98.80
2019-05-12T07:51:30.440Z,98.80
2019-05-12T07:52:26.758Z,99.99
2019-05-12T07:53:26.787Z,99.99
2019-05-12T07:54:29.317Z,99.99
2019-05-12T07:55:26.871Z,99.99
2019-05-12T07:56:32.535Z,99.99
2019-05-12T07:57:26.912Z,99.43
2019-05-12T07:58:26.940Z,99.66
2019-05-12T07:59:35.663Z,98.52
2019-05-12T08:00:27.002Z,97.66
2019-05-12T08:01:27.033Z,96.89
2019-05-12T08:02:31.553Z,95.84
2019-05-12T08:03:27.099Z,95.36
2019-05-12T08:06:27.190Z,95.07
2019-05-12T08:07:29.909Z,95.94
2019-05-12T08:08:27.254Z,94.51
2019-05-12T08:09:32.524Z,94.41
2019-05-12T08:10:27.342Z,96.18
2019-05-12T08:11:28.676Z,94.65
2019-05-12T08:12:27.608Z,92.16
2019-05-12T08:13:31.379Z,93.02
2019-05-12T08:14:29.342Z,95.12
2019-05-12T08:15:27.498Z,93.98
2019-05-12T08:16:30.273Z,93.12
2019-05-12T08:17:27.560Z,95.32
2019-05-12T08:18:30.631Z,94.74
2019-05-12T08:20:27.634Z,95.22
2019-05-12T08:21:27.665Z,94.55
2019-05-12T08:22:29.414Z,92.50
2019-05-12T08:23:27.754Z,95.41
2019-05-12T08:24:27.762Z,96.03
2019-05-12T08:25:28.917Z,96.03
2019-05-12T08:26:28.560Z,95.98
2019-05-12T08:27:27.880Z,96.17
2019-05-12T08:28:35.779Z,97.42
2019-05-12T08:30:28.179Z,97.28
2019-05-12T08:32:28.018Z,92.79
2019-05-12T08:33:29.615Z,92.97
2019-05-12T08:34:28.102Z,93.79
2019-05-12T08:35:34.594Z,94.41
2019-05-12T08:37:28.202Z,92.88
2019-05-12T08:38:28.434Z,94.12
2019-05-12T08:39:28.264Z,95.17
2019-05-12T08:40:28.497Z,97.03
2019-05-12T08:41:28.731Z,96.17
2019-05-12T08:42:28.562Z,93.88
2019-05-12T08:43:29.511Z,92.60
2019-05-12T08:44:33.484Z,94.41
2019-05-12T08:45:33.936Z,95.17
2019-05-12T08:46:28.695Z,95.89
2019-05-12T08:47:29.011Z,94.74
2019-05-12T08:48:28.554Z,95.27
2019-05-12T08:49:34.035Z,93.07
2019-05-12T08:50:31.440Z,93.12
2019-05-12T08:51:28.925Z,91.83
2019-05-12T08:52:30.775Z,90.15
2019-05-12T08:53:28.686Z,90.53
2019-05-12T08:54:28.718Z,89.09
2019-05-12T08:55:32.495Z,88.43
2019-05-12T08:56:28.782Z,90.05
2019-05-12T08:57:34.909Z,87.95
2019-05-12T08:58:33.652Z,87.04
2019-05-12T08:59:28.881Z,87.66
2019-05-12T09:00:28.913Z,88.47
2019-05-12T09:01:30.756Z,88.56
2019-05-12T09:02:28.978Z,88.67
2019-05-12T09:03:30.420Z,88.81
2019-05-12T09:04:29.085Z,91.02
2019-05-12T09:05:34.615Z,91.25
2019-05-12T09:06:29.107Z,91.16
2019-05-12T09:07:30.389Z,93.16
2019-05-12T09:08:29.174Z,92.97
2019-05-12T09:09:29.214Z,94.65
2019-05-12T09:10:29.239Z,93.60
2019-05-12T09:11:29.273Z,91.97
2019-05-12T09:12:29.355Z,90.44
2019-05-12T09:13:29.337Z,91.06
2019-05-12T09:14:35.529Z,91.53
2019-05-12T09:15:29.403Z,91.44
2019-05-12T09:16:29.436Z,92.30
2019-05-12T09:17:29.468Z,90.96
2019-05-12T09:18:35.135Z,89.96
2019-05-12T09:19:29.535Z,90.48
2019-05-12T09:20:29.568Z,88.34
2019-05-12T09:21:34.297Z,89.34
2019-05-12T09:22:29.631Z,90.82
2019-05-12T09:23:32.824Z,90.06
2019-05-12T09:24:29.699Z,88.05
2019-05-12T09:25:29.730Z,88.91
2019-05-12T09:26:29.762Z,89.24
2019-05-12T09:27:29.795Z,87.43
2019-05-12T09:28:43.611Z,87.19
2019-05-12T09:29:29.859Z,87.86
2019-05-12T09:30:29.893Z,86.66
2019-05-12T09:31:29.925Z,85.51
2019-05-12T09:32:29.959Z,87.18
2019-05-12T09:33:34.103Z,87.08
2019-05-12T09:34:30.024Z,85.12
2019-05-12T09:35:34.842Z,83.39
2019-05-12T09:36:30.090Z,84.88
2019-05-12T09:37:31.027Z,84.02
2019-05-12T09:38:30.158Z,84.45
2019-05-12T09:39:34.114Z,84.06
2019-05-12T09:40:30.222Z,84.12
2019-05-12T09:41:34.107Z,85.08
2019-05-12T09:42:30.288Z,84.31
2019-05-12T09:43:30.328Z,86.13
2019-05-12T09:44:30.680Z,86.08
2019-05-12T09:45:30.388Z,83.82
2019-05-12T09:46:34.331Z,81.57
2019-05-12T09:47:30.534Z,84.26
2019-05-12T09:48:30.489Z,84.06
2019-05-12T09:49:33.316Z,82.92
2019-05-12T09:51:32.950Z,83.39
2019-05-12T09:52:30.623Z,82.63
2019-05-12T09:53:34.250Z,84.11
2019-05-12T09:54:38.902Z,84.49
2019-05-12T09:55:30.725Z,82.24
2019-05-12T09:56:30.758Z,81.63
2019-05-12T09:57:32.499Z,82.40
2019-05-12T09:58:30.850Z,82.40
2019-05-12T09:59:30.858Z,84.79
2019-05-12T10:00:35.978Z,84.97
2019-05-12T10:01:35.293Z,84.11
2019-05-12T10:03:38.318Z,79.99
2019-05-12T10:04:32.971Z,81.81
2019-05-12T10:05:38.572Z,81.37
2019-05-12T10:06:31.099Z,81.18
2019-05-12T10:07:31.134Z,79.88
2019-05-12T10:08:35.670Z,79.68
2019-05-12T10:09:33.437Z,78.86
2019-05-12T10:10:38.306Z,77.80
2019-05-12T10:11:31.272Z,77.31
2019-05-12T10:12:38.814Z,74.65
2019-05-12T10:13:31.341Z,73.00
2019-05-12T10:14:31.376Z,72.80
2019-05-12T10:15:33.188Z,71.52
2019-05-12T10:16:33.433Z,70.40
2019-05-12T10:17:33.869Z,69.57
2019-05-12T10:19:33.904Z,68.00
2019-05-12T10:20:35.409Z,66.04
2019-05-12T10:21:31.640Z,66.46
2019-05-12T10:22:37.785Z,65.53
2019-05-12T10:23:33.612Z,65.40
2019-05-12T10:24:40.263Z,64.37
2019-05-12T10:25:33.905Z,63.50
2019-05-12T10:26:34.117Z,63.09
2019-05-12T10:27:34.490Z,64.66
2019-05-12T10:28:31.923Z,64.73
2019-05-12T10:29:32.424Z,65.01
2019-05-12T10:30:34.251Z,62.37
2019-05-12T10:31:35.803Z,62.57
2019-05-12T10:32:34.161Z,62.60
2019-05-12T10:33:33.775Z,60.67
2019-05-12T10:34:35.808Z,60.71
2019-05-12T10:35:34.686Z,60.44
2019-05-12T10:36:33.731Z,60.68
2019-05-12T10:38:34.406Z,68.76
2019-05-12T10:39:33.488Z,70.75
2019-05-12T10:40:33.813Z,69.41
2019-05-12T10:41:34.240Z,66.30
2019-05-12T10:42:33.650Z,62.79
2019-05-12T10:43:34.205Z,61.16
2019-05-12T10:44:38.566Z,62.02
2019-05-12T10:45:32.643Z,60.16
2019-05-12T10:46:32.706Z,62.41
2019-05-12T10:47:34.324Z,64.21
2019-05-12T10:48:33.901Z,63.60
2019-05-12T10:50:34.116Z,60.89
2019-05-12T10:51:34.356Z,59.99
2019-05-12T10:52:35.032Z,59.44
2019-05-12T10:53:34.112Z,57.51
2019-05-12T10:54:34.242Z,58.61
2019-05-12T10:55:33.765Z,57.89
2019-05-12T10:56:34.783Z,57.29
2019-05-12T10:57:33.422Z,57.64
2019-05-12T10:58:33.614Z,57.52
2019-05-12T10:59:38.261Z,60.80
2019-05-12T11:00:33.737Z,61.16
2019-05-12T11:01:38.428Z,60.18
2019-05-12T11:02:33.745Z,57.29
2019-05-12T11:03:33.803Z,55.41
2019-05-12T11:04:38.949Z,57.54
2019-05-12T11:05:34.150Z,58.61
2019-05-12T11:06:34.046Z,57.51
2019-05-12T11:07:34.064Z,56.71
2019-05-12T11:08:33.655Z,57.57
2019-05-12T11:09:34.536Z,56.71
2019-05-12T11:10:33.745Z,56.20
2019-05-12T11:11:42.367Z,56.58
2019-05-12T11:12:33.836Z,59.52
2019-05-12T11:13:33.927Z,58.25
2019-05-12T11:14:34.305Z,55.89
2019-05-12T11:15:34.616Z,55.31
2019-05-12T11:17:34.064Z,54.99
2019-05-12T11:18:34.230Z,55.26
2019-05-12T11:19:34.382Z,55.90
2019-05-12T11:20:34.552Z,56.51
2019-05-12T11:21:34.254Z,56.56
2019-05-12T11:23:34.628Z,58.58
2019-05-12T11:28:34.793Z,58.10
2019-05-12T11:29:45.704Z,57.38
2019-05-12T11:30:35.392Z,55.35
2019-05-12T11:31:37.326Z,54.75
2019-05-12T11:32:37.914Z,55.93
2019-05-12T11:33:34.794Z,55.38
2019-05-12T11:34:34.843Z,54.58
2019-05-12T11:35:34.899Z,54.25
2019-05-12T11:36:34.936Z,53.41
2019-05-12T11:37:34.983Z,51.81
2019-05-12T11:38:35.024Z,51.35
2019-05-12T11:39:38.686Z,53.33
2019-05-12T11:40:35.117Z,55.09
2019-05-12T11:41:35.162Z,55.31
2019-05-12T11:42:35.351Z,54.97
2019-05-12T11:43:35.256Z,57.21
2019-05-12T11:44:35.304Z,56.90
2019-05-12T11:45:35.348Z,55.31
2019-05-12T11:46:36.392Z,52.73
2019-05-12T11:47:37.324Z,53.02
2019-05-12T11:48:40.447Z,52.99
2019-05-12T11:49:35.533Z,53.21
2019-05-12T11:50:40.538Z,52.61
2019-05-12T11:51:35.626Z,51.96
2019-05-12T11:52:35.675Z,49.95
2019-05-12T11:53:35.720Z,50.16
2019-05-12T11:54:35.766Z,48.95
2019-05-12T11:55:35.864Z,48.35
2019-05-12T11:56:40.414Z,51.25
2019-05-12T11:57:35.904Z,52.55
2019-05-12T11:58:35.951Z,52.82
2019-05-12T11:59:36.000Z,51.16
2019-05-12T12:00:36.046Z,50.96
2019-05-12T12:01:39.687Z,50.19
2019-05-12T12:02:36.364Z,50.48
2019-05-12T12:03:36.186Z,50.38
2019-05-12T12:04:36.234Z,50.24
2019-05-12T12:05:38.228Z,51.23
2019-05-12T12:08:37.378Z,47.76
2019-05-12T12:09:36.898Z,47.28
2019-05-12T12:10:39.693Z,47.33
2019-05-12T12:12:39.566Z,46.28
2019-05-12T12:14:00.304Z,48.83
2019-05-12T12:14:40.194Z,49.44
2019-05-12T12:16:41.963Z,47.23
2019-05-12T12:18:36.892Z,50.84
2019-05-12T12:19:43.717Z,50.38
2019-05-12T12:21:40.397Z,50.94
2019-05-12T12:24:38.389Z,47.03
2019-05-12T12:25:37.217Z,46.28
2019-05-12T12:26:37.437Z,45.85
2019-05-12T12:27:37.311Z,47.14
2019-05-12T12:28:37.370Z,48.88
2019-05-12T12:29:37.408Z,48.66
2019-05-12T12:30:37.503Z,51.06
2019-05-12T12:31:38.938Z,49.34
2019-05-12T12:32:37.547Z,51.68
2019-05-12T12:33:40.667Z,50.07
2019-05-12T12:34:37.640Z,48.52
2019-05-12T12:35:37.687Z,48.32
2019-05-12T12:36:37.736Z,49.51
2019-05-12T12:37:37.782Z,49.56
2019-05-12T12:38:37.828Z,50.16
2019-05-12T12:39:37.876Z,48.95
2019-05-12T12:40:37.923Z,48.32
2019-05-12T12:41:42.663Z,46.48
2019-05-12T12:42:44.069Z,46.01
2019-05-12T12:43:38.064Z,44.44
2019-05-12T12:44:38.144Z,44.89
2019-05-12T12:45:40.340Z,45.53
2019-05-12T12:46:38.206Z,45.89
2019-05-12T12:47:44.413Z,47.06
2019-05-12T12:48:38.299Z,46.19
2019-05-12T12:49:39.968Z,46.72
2019-05-12T12:50:38.393Z,46.97
2019-05-12T12:51:38.440Z,47.50
2019-05-12T12:52:43.791Z,48.79
2019-05-12T12:54:38.807Z,50.33
2019-05-12T12:56:38.677Z,46.89
2019-05-12T12:57:40.289Z,45.95
2019-05-12T12:58:38.995Z,46.29
2019-05-12T12:59:45.417Z,46.41
2019-05-12T13:00:47.746Z,45.65
2019-05-12T13:02:44.116Z,45.92
2019-05-12T13:07:39.192Z,51.64
2019-05-12T13:08:39.239Z,51.88
2019-05-12T13:09:39.287Z,50.79
2019-05-12T13:10:40.438Z,47.77
2019-05-12T13:11:39.380Z,46.75
2019-05-12T13:14:39.517Z,47.06
2019-05-12T13:15:39.563Z,46.84
2019-05-12T13:16:39.616Z,48.42
2019-05-12T13:17:41.767Z,47.67
2019-05-12T13:18:39.702Z,47.16
2019-05-12T13:19:39.750Z,45.89
2019-05-12T13:20:39.794Z,45.61
2019-05-12T13:21:40.168Z,46.16
2019-05-12T13:22:39.907Z,45.39
2019-05-12T13:23:41.103Z,46.82
2019-05-12T13:24:40.005Z,46.41
2019-05-12T13:25:48.457Z,46.82
2019-05-12T13:26:40.272Z,46.26
2019-05-12T13:27:40.141Z,44.65
2019-05-12T13:28:45.447Z,44.07
2019-05-12T13:29:40.233Z,44.59
2019-05-12T13:31:41.088Z,47.06
2019-05-12T13:32:40.573Z,47.19
2019-05-12T13:33:40.397Z,48.42
2019-05-12T13:34:40.441Z,46.82
2019-05-12T13:35:40.487Z,47.14
2019-05-12T13:36:40.533Z,48.25
2019-05-12T13:37:40.578Z,48.90
2019-05-12T13:38:40.773Z,49.37
2019-05-12T13:39:40.671Z,49.56
2019-05-12T13:40:40.716Z,49.12
2019-05-12T13:41:40.761Z,52.12
2019-05-12T13:42:40.835Z,49.29
2019-05-12T13:43:40.856Z,48.25
2019-05-12T13:44:40.993Z,48.52
2019-05-12T13:45:40.948Z,47.09
2019-05-12T13:46:43.411Z,47.62
2019-05-12T13:47:41.266Z,45.89
2019-05-12T13:48:43.312Z,45.21
2019-05-12T13:49:46.789Z,46.43
2019-05-12T13:50:43.181Z,46.16
2019-05-12T13:51:43.056Z,46.99
2019-05-12T13:52:41.296Z,47.57
2019-05-12T13:53:46.431Z,47.55
2019-05-12T13:54:43.561Z,47.57
2019-05-12T13:55:47.507Z,47.30
2019-05-12T13:56:41.454Z,46.94
2019-05-12T13:57:46.235Z,46.43
2019-05-12T13:58:43.708Z,45.61
2019-05-12T13:59:43.501Z,45.27
2019-05-12T14:00:47.445Z,45.54
2019-05-12T14:01:42.861Z,45.66
2019-05-12T14:02:43.985Z,46.97
2019-05-12T14:03:48.647Z,48.35
2019-05-12T14:04:44.221Z,47.86
2019-05-12T14:05:50.511Z,47.36
2019-05-12T14:06:41.912Z,47.09
2019-05-12T14:07:43.726Z,46.94
2019-05-12T14:08:44.391Z,45.25
2019-05-12T14:09:43.724Z,45.56
2019-05-12T14:10:44.714Z,45.39
2019-05-12T14:11:43.695Z,44.92
2019-05-12T14:12:44.030Z,45.48
2019-05-12T14:13:42.236Z,45.83
2019-05-12T14:14:43.726Z,48.54
2019-05-12T14:15:44.263Z,48.76
2019-05-12T14:16:44.643Z,47.67
2019-05-12T14:17:43.498Z,45.61
2019-05-12T14:18:44.201Z,44.38
2019-05-12T14:19:43.725Z,43.63
2019-05-12T14:20:44.897Z,44.59
2019-05-12T14:21:42.681Z,46.16
2019-05-12T14:22:44.741Z,45.39
2019-05-12T14:23:43.657Z,45.65
2019-05-12T14:24:46.561Z,46.14
2019-05-12T14:25:43.731Z,46.04
2019-05-12T14:26:45.573Z,45.27
2019-05-12T14:27:44.302Z,44.59
2019-05-12T14:28:45.700Z,44.59
2019-05-12T14:29:44.085Z,44.10
2019-05-12T14:30:49.774Z,44.34
2019-05-12T14:31:50.006Z,42.99
2019-05-12T14:32:43.974Z,41.36
2019-05-12T14:33:44.225Z,42.69
2019-05-12T14:34:43.475Z,43.23
2019-05-12T14:35:45.778Z,44.10
2019-05-12T14:36:43.414Z,43.37
2019-05-12T14:37:45.988Z,45.61
2019-05-12T14:38:43.369Z,46.66
2019-05-12T14:39:46.108Z,45.81